sensor_id;sensor_type;location;lat;lon;timestamp;P1;durP1;ratioP1;P2;durP2;ratioP2
4274;SDS011;2151;50.988;11.068;2023-05-10T00:02:23;117.70;;;7.33;;
4274;SDS011;2151;50.988;11.068;2023-05-10T00:04:50;120.23;;;7.30;;
4274;SDS011;2151;50.988;11.068;2023-05-10T00:07:17;143.07;;;6.90;;
4274;SDS011;2151;50.988;11.068;2023-05-10T00:09:43;117.70;;;6.60;;
4274;SDS011;2151;50.988;11.068;2023-05-10T00:12:10;119.87;;;6.97;;
4274;SDS011;2151;50.988;11.068;2023-05-10T00:14:36;117.47;;;6.60;;
4274;SDS011;2151;50.988;11.068;2023-05-10T00:17:03;116.77;;;6.90;;
4274;SDS011;2151;50.988;11.068;2023-05-10T00:19:29;121.90;;;6.90;;
4274;SDS011;2151;50.988;11.068;2023-05-10T00:21:56;116.53;;;6.50;;
4274;SDS011;2151;50.988;11.068;2023-05-10T00:24:22;116.87;;;6.30;;
4274;SDS011;2151;50.988;11.068;2023-05-10T00:26:48;119.37;;;6.70;;
4274;SDS011;2151;50.988;11.068;2023-05-10T00:29:15;117.07;;;6.73;;
4274;SDS011;2151;50.988;11.068;2023-05-10T00:31:41;118.37;;;6.40;;
4274;SDS011;2151;50.988;11.068;2023-05-10T00:34:08;117.27;;;7.30;;
4274;SDS011;2151;50.988;11.068;2023-05-10T00:36:34;118.57;;;6.47;;
4274;SDS011;2151;50.988;11.068;2023-05-10T00:39:00;118.60;;;6.40;;
4274;SDS011;2151;50.988;11.068;2023-05-10T00:41:27;117.47;;;7.00;;
4274;SDS011;2151;50.988;11.068;2023-05-10T00:43:53;117.83;;;6.80;;
4274;SDS011;2151;50.988;11.068;2023-05-10T00:46:20;117.50;;;6.60;;
4274;SDS011;2151;50.988;11.068;2023-05-10T00:48:46;118.97;;;6.63;;
4274;SDS011;2151;50.988;11.068;2023-05-10T00:51:13;117.00;;;6.73;;
4274;SDS011;2151;50.988;11.068;2023-05-10T00:53:39;121.17;;;6.90;;
4274;SDS011;2151;50.988;11.068;2023-05-10T00:56:06;118.67;;;6.50;;
4274;SDS011;2151;50.988;11.068;2023-05-10T00:58:33;119.97;;;6.77;;
4274;SDS011;2151;50.988;11.068;2023-05-10T01:00:59;122.03;;;6.53;;
4274;SDS011;2151;50.988;11.068;2023-05-10T01:03:26;117.00;;;6.50;;
4274;SDS011;2151;50.988;11.068;2023-05-10T01:05:53;118.10;;;6.73;;
4274;SDS011;2151;50.988;11.068;2023-05-10T01:08:20;120.07;;;6.67;;
4274;SDS011;2151;50.988;11.068;2023-05-10T01:10:47;117.90;;;6.50;;
4274;SDS011;2151;50.988;11.068;2023-05-10T01:13:34;119.80;;;7.07;;
4274;SDS011;2151;50.988;11.068;2023-05-10T01:16:02;118.50;;;6.67;;
4274;SDS011;2151;50.988;11.068;2023-05-10T01:18:30;118.40;;;6.03;;
4274;SDS011;2151;50.988;11.068;2023-05-10T01:23:37;117.70;;;6.40;;
4274;SDS011;2151;50.988;11.068;2023-05-10T01:33:55;118.30;;;7.30;;
4274;SDS011;2151;50.988;11.068;2023-05-10T01:36:32;119.40;;;6.33;;
4274;SDS011;2151;50.988;11.068;2023-05-10T01:41:36;117.77;;;6.50;;
4274;SDS011;2151;50.988;11.068;2023-05-10T01:44:25;117.80;;;6.70;;
4274;SDS011;2151;50.988;11.068;2023-05-10T01:46:54;116.80;;;6.53;;
4274;SDS011;2151;50.988;11.068;2023-05-10T01:49:24;117.57;;;6.50;;
4274;SDS011;2151;50.988;11.068;2023-05-10T01:51:52;118.30;;;6.60;;
4274;SDS011;2151;50.988;11.068;2023-05-10T01:54:21;121.20;;;6.87;;
4274;SDS011;2151;50.988;11.068;2023-05-10T01:56:52;124.27;;;6.83;;
4274;SDS011;2151;50.988;11.068;2023-05-10T01:59:21;121.67;;;6.90;;
4274;SDS011;2151;50.988;11.068;2023-05-10T02:01:47;116.53;;;6.30;;
4274;SDS011;2151;50.988;11.068;2023-05-10T02:04:16;120.63;;;7.10;;
4274;SDS011;2151;50.988;11.068;2023-05-10T02:06:43;117.90;;;7.27;;
4274;SDS011;2151;50.988;11.068;2023-05-10T02:09:11;125.33;;;6.50;;
4274;SDS011;2151;50.988;11.068;2023-05-10T02:11:38;117.33;;;6.57;;
4274;SDS011;2151;50.988;11.068;2023-05-10T02:14:08;117.23;;;6.60;;
4274;SDS011;2151;50.988;11.068;2023-05-10T02:16:35;119.73;;;7.10;;
4274;SDS011;2151;50.988;11.068;2023-05-10T02:19:02;123.27;;;6.77;;
4274;SDS011;2151;50.988;11.068;2023-05-10T02:21:29;117.80;;;6.70;;
4274;SDS011;2151;50.988;11.068;2023-05-10T02:23:57;119.63;;;7.10;;
4274;SDS011;2151;50.988;11.068;2023-05-10T02:26:24;117.90;;;6.90;;
4274;SDS011;2151;50.988;11.068;2023-05-10T02:28:51;118.90;;;6.77;;
4274;SDS011;2151;50.988;11.068;2023-05-10T02:31:19;117.87;;;7.13;;
4274;SDS011;2151;50.988;11.068;2023-05-10T02:33:46;117.73;;;6.67;;
4274;SDS011;2151;50.988;11.068;2023-05-10T02:36:13;118.30;;;6.83;;
4274;SDS011;2151;50.988;11.068;2023-05-10T02:38:40;121.20;;;6.60;;
4274;SDS011;2151;50.988;11.068;2023-05-10T02:41:07;118.03;;;6.67;;
4274;SDS011;2151;50.988;11.068;2023-05-10T02:43:34;118.90;;;7.43;;
4274;SDS011;2151;50.988;11.068;2023-05-10T02:46:01;126.10;;;7.40;;
4274;SDS011;2151;50.988;11.068;2023-05-10T02:48:28;118.67;;;7.07;;
4274;SDS011;2151;50.988;11.068;2023-05-10T02:50:55;119.00;;;6.70;;
4274;SDS011;2151;50.988;11.068;2023-05-10T02:53:31;119.83;;;7.30;;
4274;SDS011;2151;50.988;11.068;2023-05-10T02:55:58;117.90;;;7.07;;
4274;SDS011;2151;50.988;11.068;2023-05-10T02:58:25;120.83;;;6.93;;
4274;SDS011;2151;50.988;11.068;2023-05-10T03:00:52;119.83;;;6.53;;
4274;SDS011;2151;50.988;11.068;2023-05-10T03:03:19;117.77;;;6.77;;
4274;SDS011;2151;50.988;11.068;2023-05-10T03:05:46;118.57;;;6.80;;
4274;SDS011;2151;50.988;11.068;2023-05-10T03:08:12;119.50;;;7.03;;
4274;SDS011;2151;50.988;11.068;2023-05-10T03:10:47;119.77;;;7.10;;
4274;SDS011;2151;50.988;11.068;2023-05-10T03:13:31;122.30;;;7.03;;
4274;SDS011;2151;50.988;11.068;2023-05-10T03:16:08;117.07;;;6.57;;
4274;SDS011;2151;50.988;11.068;2023-05-10T03:21:07;117.63;;;7.10;;
4274;SDS011;2151;50.988;11.068;2023-05-10T03:23:46;119.97;;;6.73;;
4274;SDS011;2151;50.988;11.068;2023-05-10T03:26:15;118.83;;;6.73;;
4274;SDS011;2151;50.988;11.068;2023-05-10T03:28:43;118.60;;;7.37;;
4274;SDS011;2151;50.988;11.068;2023-05-10T03:31:09;119.57;;;7.23;;
4274;SDS011;2151;50.988;11.068;2023-05-10T03:33:45;120.57;;;7.40;;
4274;SDS011;2151;50.988;11.068;2023-05-10T03:36:11;117.40;;;6.90;;
4274;SDS011;2151;50.988;11.068;2023-05-10T03:38:37;118.97;;;7.37;;
4274;SDS011;2151;50.988;11.068;2023-05-10T03:41:04;118.73;;;6.90;;
4274;SDS011;2151;50.988;11.068;2023-05-10T03:43:30;121.47;;;7.40;;
4274;SDS011;2151;50.988;11.068;2023-05-10T03:45:57;118.87;;;7.27;;
4274;SDS011;2151;50.988;11.068;2023-05-10T03:48:23;121.13;;;7.00;;
4274;SDS011;2151;50.988;11.068;2023-05-10T03:50:50;120.77;;;7.80;;
4274;SDS011;2151;50.988;11.068;2023-05-10T03:53:16;121.00;;;7.30;;
4274;SDS011;2151;50.988;11.068;2023-05-10T03:55:42;121.97;;;7.70;;
4274;SDS011;2151;50.988;11.068;2023-05-10T03:58:12;120.77;;;7.50;;
4274;SDS011;2151;50.988;11.068;2023-05-10T04:00:38;120.60;;;7.60;;
4274;SDS011;2151;50.988;11.068;2023-05-10T04:03:09;119.00;;;7.53;;
4274;SDS011;2151;50.988;11.068;2023-05-10T04:05:36;121.90;;;7.47;;
4274;SDS011;2151;50.988;11.068;2023-05-10T04:08:03;123.30;;;7.80;;
4274;SDS011;2151;50.988;11.068;2023-05-10T04:10:30;118.97;;;7.43;;
4274;SDS011;2151;50.988;11.068;2023-05-10T04:12:56;118.97;;;7.67;;
4274;SDS011;2151;50.988;11.068;2023-05-10T04:15:22;119.57;;;7.50;;
4274;SDS011;2151;50.988;11.068;2023-05-10T04:17:49;121.17;;;7.87;;
4274;SDS011;2151;50.988;11.068;2023-05-10T04:20:16;122.47;;;8.23;;
4274;SDS011;2151;50.988;11.068;2023-05-10T04:22:43;121.00;;;8.03;;
4274;SDS011;2151;50.988;11.068;2023-05-10T04:25:09;121.83;;;8.03;;
4274;SDS011;2151;50.988;11.068;2023-05-10T04:27:36;119.57;;;7.53;;
4274;SDS011;2151;50.988;11.068;2023-05-10T04:30:03;120.50;;;7.50;;
4274;SDS011;2151;50.988;11.068;2023-05-10T04:32:29;123.67;;;7.90;;
4274;SDS011;2151;50.988;11.068;2023-05-10T04:34:56;129.23;;;7.67;;
4274;SDS011;2151;50.988;11.068;2023-05-10T04:37:22;121.80;;;8.27;;
4274;SDS011;2151;50.988;11.068;2023-05-10T04:39:49;119.83;;;8.10;;
4274;SDS011;2151;50.988;11.068;2023-05-10T04:42:16;120.17;;;7.60;;
4274;SDS011;2151;50.988;11.068;2023-05-10T04:44:42;121.87;;;8.00;;
4274;SDS011;2151;50.988;11.068;2023-05-10T04:47:09;122.83;;;8.37;;
4274;SDS011;2151;50.988;11.068;2023-05-10T04:49:38;120.17;;;8.57;;
4274;SDS011;2151;50.988;11.068;2023-05-10T04:52:04;122.87;;;8.57;;
4274;SDS011;2151;50.988;11.068;2023-05-10T04:54:31;122.17;;;8.70;;
4274;SDS011;2151;50.988;11.068;2023-05-10T04:56:57;119.60;;;8.00;;
4274;SDS011;2151;50.988;11.068;2023-05-10T04:59:23;119.90;;;8.00;;
4274;SDS011;2151;50.988;11.068;2023-05-10T05:01:50;122.30;;;8.47;;
4274;SDS011;2151;50.988;11.068;2023-05-10T05:04:16;121.60;;;8.23;;
4274;SDS011;2151;50.988;11.068;2023-05-10T05:06:43;120.40;;;8.30;;
4274;SDS011;2151;50.988;11.068;2023-05-10T05:09:09;121.47;;;8.37;;
4274;SDS011;2151;50.988;11.068;2023-05-10T05:11:36;120.60;;;8.47;;
4274;SDS011;2151;50.988;11.068;2023-05-10T05:14:02;120.73;;;8.40;;
4274;SDS011;2151;50.988;11.068;2023-05-10T05:16:30;120.63;;;8.10;;
4274;SDS011;2151;50.988;11.068;2023-05-10T05:18:56;122.77;;;9.90;;
4274;SDS011;2151;50.988;11.068;2023-05-10T05:21:23;120.80;;;8.97;;
4274;SDS011;2151;50.988;11.068;2023-05-10T05:23:50;122.00;;;8.77;;
4274;SDS011;2151;50.988;11.068;2023-05-10T05:26:16;123.57;;;8.50;;
4274;SDS011;2151;50.988;11.068;2023-05-10T05:28:42;121.47;;;7.97;;
4274;SDS011;2151;50.988;11.068;2023-05-10T05:31:09;125.80;;;8.80;;
4274;SDS011;2151;50.988;11.068;2023-05-10T05:33:36;121.63;;;8.90;;
4274;SDS011;2151;50.988;11.068;2023-05-10T05:36:03;121.03;;;8.10;;
4274;SDS011;2151;50.988;11.068;2023-05-10T05:38:30;123.17;;;9.20;;
4274;SDS011;2151;50.988;11.068;2023-05-10T05:40:56;120.27;;;8.50;;
4274;SDS011;2151;50.988;11.068;2023-05-10T05:43:23;123.77;;;9.03;;
4274;SDS011;2151;50.988;11.068;2023-05-10T05:45:49;124.27;;;9.10;;
4274;SDS011;2151;50.988;11.068;2023-05-10T05:48:18;121.73;;;8.47;;
4274;SDS011;2151;50.988;11.068;2023-05-10T05:50:44;119.87;;;8.43;;
4274;SDS011;2151;50.988;11.068;2023-05-10T05:53:11;125.90;;;9.33;;
4274;SDS011;2151;50.988;11.068;2023-05-10T05:55:38;121.40;;;8.67;;
4274;SDS011;2151;50.988;11.068;2023-05-10T05:58:04;122.03;;;8.87;;
4274;SDS011;2151;50.988;11.068;2023-05-10T06:00:30;120.80;;;9.33;;
4274;SDS011;2151;50.988;11.068;2023-05-10T06:02:57;124.37;;;8.93;;
4274;SDS011;2151;50.988;11.068;2023-05-10T06:05:23;126.00;;;8.10;;
4274;SDS011;2151;50.988;11.068;2023-05-10T06:07:50;122.00;;;7.67;;
4274;SDS011;2151;50.988;11.068;2023-05-10T06:10:16;119.73;;;8.27;;
4274;SDS011;2151;50.988;11.068;2023-05-10T06:12:42;121.27;;;7.80;;
4274;SDS011;2151;50.988;11.068;2023-05-10T06:15:09;118.77;;;7.63;;
4274;SDS011;2151;50.988;11.068;2023-05-10T06:17:36;120.03;;;8.07;;
4274;SDS011;2151;50.988;11.068;2023-05-10T06:20:02;119.70;;;8.43;;
4274;SDS011;2151;50.988;11.068;2023-05-10T06:22:29;120.37;;;8.20;;
4274;SDS011;2151;50.988;11.068;2023-05-10T06:24:55;119.03;;;8.00;;
4274;SDS011;2151;50.988;11.068;2023-05-10T06:27:21;118.60;;;7.80;;
4274;SDS011;2151;50.988;11.068;2023-05-10T06:29:48;119.17;;;7.63;;
4274;SDS011;2151;50.988;11.068;2023-05-10T06:32:19;119.17;;;7.70;;
4274;SDS011;2151;50.988;11.068;2023-05-10T06:34:45;118.07;;;7.50;;
4274;SDS011;2151;50.988;11.068;2023-05-10T06:37:12;120.07;;;8.50;;
4274;SDS011;2151;50.988;11.068;2023-05-10T06:39:38;118.30;;;7.73;;
4274;SDS011;2151;50.988;11.068;2023-05-10T06:42:05;118.93;;;7.97;;
4274;SDS011;2151;50.988;11.068;2023-05-10T06:44:31;118.77;;;8.57;;
4274;SDS011;2151;50.988;11.068;2023-05-10T06:46:58;119.97;;;8.10;;
4274;SDS011;2151;50.988;11.068;2023-05-10T06:49:24;119.57;;;8.60;;
4274;SDS011;2151;50.988;11.068;2023-05-10T06:51:50;117.47;;;7.73;;
4274;SDS011;2151;50.988;11.068;2023-05-10T06:54:17;143.33;;;10.30;;
4274;SDS011;2151;50.988;11.068;2023-05-10T06:56:44;119.47;;;8.33;;
4274;SDS011;2151;50.988;11.068;2023-05-10T06:59:10;118.00;;;7.60;;
4274;SDS011;2151;50.988;11.068;2023-05-10T07:01:37;118.17;;;8.20;;
4274;SDS011;2151;50.988;11.068;2023-05-10T07:04:03;118.97;;;8.07;;
4274;SDS011;2151;50.988;11.068;2023-05-10T07:06:30;119.90;;;8.50;;
4274;SDS011;2151;50.988;11.068;2023-05-10T07:08:59;118.47;;;8.47;;
4274;SDS011;2151;50.988;11.068;2023-05-10T07:11:26;118.27;;;8.60;;
4274;SDS011;2151;50.988;11.068;2023-05-10T07:13:52;117.77;;;8.53;;
4274;SDS011;2151;50.988;11.068;2023-05-10T07:16:19;118.07;;;8.93;;
4274;SDS011;2151;50.988;11.068;2023-05-10T07:18:45;117.87;;;8.17;;
4274;SDS011;2151;50.988;11.068;2023-05-10T07:21:12;120.60;;;9.00;;
4274;SDS011;2151;50.988;11.068;2023-05-10T07:23:38;118.67;;;9.77;;
4274;SDS011;2151;50.988;11.068;2023-05-10T07:26:05;117.70;;;8.50;;
4274;SDS011;2151;50.988;11.068;2023-05-10T07:28:31;120.80;;;10.40;;
4274;SDS011;2151;50.988;11.068;2023-05-10T07:30:58;120.37;;;11.87;;
4274;SDS011;2151;50.988;11.068;2023-05-10T07:33:24;121.37;;;13.50;;
4274;SDS011;2151;50.988;11.068;2023-05-10T07:35:51;121.83;;;14.50;;
4274;SDS011;2151;50.988;11.068;2023-05-10T07:38:17;124.50;;;15.23;;
4274;SDS011;2151;50.988;11.068;2023-05-10T07:40:44;131.40;;;14.57;;
4274;SDS011;2151;50.988;11.068;2023-05-10T07:43:10;122.57;;;14.97;;
4274;SDS011;2151;50.988;11.068;2023-05-10T07:45:37;121.03;;;13.63;;
4274;SDS011;2151;50.988;11.068;2023-05-10T07:48:03;121.57;;;14.40;;
4274;SDS011;2151;50.988;11.068;2023-05-10T07:50:29;121.80;;;14.03;;
4274;SDS011;2151;50.988;11.068;2023-05-10T07:52:56;121.90;;;14.60;;
4274;SDS011;2151;50.988;11.068;2023-05-10T07:55:22;123.50;;;13.33;;
4274;SDS011;2151;50.988;11.068;2023-05-10T07:57:49;121.80;;;12.63;;
4274;SDS011;2151;50.988;11.068;2023-05-10T08:00:19;121.97;;;12.80;;
4274;SDS011;2151;50.988;11.068;2023-05-10T08:02:46;123.27;;;12.60;;
4274;SDS011;2151;50.988;11.068;2023-05-10T08:05:13;121.97;;;12.40;;
4274;SDS011;2151;50.988;11.068;2023-05-10T08:07:39;122.50;;;11.80;;
4274;SDS011;2151;50.988;11.068;2023-05-10T08:10:06;122.20;;;11.00;;
4274;SDS011;2151;50.988;11.068;2023-05-10T08:12:33;122.60;;;10.27;;
4274;SDS011;2151;50.988;11.068;2023-05-10T08:14:59;122.50;;;10.30;;
4274;SDS011;2151;50.988;11.068;2023-05-10T08:17:26;121.37;;;8.93;;
4274;SDS011;2151;50.988;11.068;2023-05-10T08:19:52;122.50;;;10.67;;
4274;SDS011;2151;50.988;11.068;2023-05-10T08:22:18;122.37;;;10.73;;
4274;SDS011;2151;50.988;11.068;2023-05-10T08:24:45;121.10;;;11.37;;
4274;SDS011;2151;50.988;11.068;2023-05-10T08:27:11;120.47;;;11.53;;
4274;SDS011;2151;50.988;11.068;2023-05-10T08:29:38;121.43;;;12.43;;
4274;SDS011;2151;50.988;11.068;2023-05-10T08:32:15;119.40;;;11.97;;
4274;SDS011;2151;50.988;11.068;2023-05-10T08:34:41;120.00;;;11.60;;
4274;SDS011;2151;50.988;11.068;2023-05-10T08:37:08;120.10;;;12.07;;
4274;SDS011;2151;50.988;11.068;2023-05-10T08:39:34;123.27;;;11.90;;
4274;SDS011;2151;50.988;11.068;2023-05-10T08:42:02;120.87;;;11.40;;
4274;SDS011;2151;50.988;11.068;2023-05-10T08:44:32;119.67;;;11.73;;
4274;SDS011;2151;50.988;11.068;2023-05-10T08:47:01;118.47;;;10.80;;
4274;SDS011;2151;50.988;11.068;2023-05-10T08:49:30;118.73;;;10.63;;
4274;SDS011;2151;50.988;11.068;2023-05-10T08:51:57;133.37;;;9.80;;
4274;SDS011;2151;50.988;11.068;2023-05-10T08:54:23;117.57;;;9.87;;
4274;SDS011;2151;50.988;11.068;2023-05-10T08:56:50;118.17;;;10.50;;
4274;SDS011;2151;50.988;11.068;2023-05-10T08:59:17;118.67;;;10.80;;
4274;SDS011;2151;50.988;11.068;2023-05-10T09:01:43;118.80;;;10.57;;
4274;SDS011;2151;50.988;11.068;2023-05-10T09:04:11;120.37;;;10.00;;
4274;SDS011;2151;50.988;11.068;2023-05-10T09:06:38;119.00;;;10.40;;
4274;SDS011;2151;50.988;11.068;2023-05-10T09:09:04;119.00;;;10.53;;
4274;SDS011;2151;50.988;11.068;2023-05-10T09:11:31;119.40;;;11.47;;
4274;SDS011;2151;50.988;11.068;2023-05-10T09:13:58;121.47;;;11.43;;
4274;SDS011;2151;50.988;11.068;2023-05-10T09:16:24;119.10;;;11.30;;
4274;SDS011;2151;50.988;11.068;2023-05-10T09:18:51;119.20;;;10.87;;
4274;SDS011;2151;50.988;11.068;2023-05-10T09:21:18;119.37;;;11.53;;
4274;SDS011;2151;50.988;11.068;2023-05-10T09:23:45;119.93;;;11.97;;
4274;SDS011;2151;50.988;11.068;2023-05-10T09:26:14;119.40;;;11.27;;
4274;SDS011;2151;50.988;11.068;2023-05-10T09:28:53;119.50;;;11.50;;
4274;SDS011;2151;50.988;11.068;2023-05-10T09:31:20;120.60;;;11.43;;
4274;SDS011;2151;50.988;11.068;2023-05-10T09:33:48;125.83;;;11.27;;
4274;SDS011;2151;50.988;11.068;2023-05-10T09:36:14;120.57;;;12.00;;
4274;SDS011;2151;50.988;11.068;2023-05-10T09:38:51;120.83;;;10.23;;
4274;SDS011;2151;50.988;11.068;2023-05-10T09:41:18;120.17;;;10.20;;
4274;SDS011;2151;50.988;11.068;2023-05-10T09:43:45;121.07;;;10.73;;
4274;SDS011;2151;50.988;11.068;2023-05-10T09:46:11;119.97;;;11.30;;
4274;SDS011;2151;50.988;11.068;2023-05-10T09:48:45;120.07;;;11.90;;
4274;SDS011;2151;50.988;11.068;2023-05-10T09:51:24;118.57;;;9.90;;
4274;SDS011;2151;50.988;11.068;2023-05-10T09:54:08;118.37;;;8.00;;
4274;SDS011;2151;50.988;11.068;2023-05-10T09:56:36;117.20;;;7.13;;
4274;SDS011;2151;50.988;11.068;2023-05-10T09:59:03;116.67;;;6.30;;
4274;SDS011;2151;50.988;11.068;2023-05-10T10:01:30;115.93;;;6.13;;
4274;SDS011;2151;50.988;11.068;2023-05-10T10:03:57;115.80;;;5.80;;
4274;SDS011;2151;50.988;11.068;2023-05-10T10:06:24;115.77;;;5.90;;
4274;SDS011;2151;50.988;11.068;2023-05-10T10:08:55;117.30;;;6.00;;
4274;SDS011;2151;50.988;11.068;2023-05-10T10:11:22;116.00;;;5.90;;
4274;SDS011;2151;50.988;11.068;2023-05-10T10:13:49;116.30;;;6.60;;
4274;SDS011;2151;50.988;11.068;2023-05-10T10:16:16;117.07;;;7.13;;
4274;SDS011;2151;50.988;11.068;2023-05-10T10:18:42;118.30;;;8.07;;
4274;SDS011;2151;50.988;11.068;2023-05-10T10:21:09;118.70;;;8.53;;
4274;SDS011;2151;50.988;11.068;2023-05-10T10:23:36;118.87;;;9.90;;
4274;SDS011;2151;50.988;11.068;2023-05-10T10:26:03;119.10;;;11.50;;
4274;SDS011;2151;50.988;11.068;2023-05-10T10:31:13;119.77;;;10.97;;
4274;SDS011;2151;50.988;11.068;2023-05-10T10:36:22;122.10;;;10.50;;
4274;SDS011;2151;50.988;11.068;2023-05-10T10:52:13;122.07;;;8.47;;
4274;SDS011;2151;50.988;11.068;2023-05-10T10:54:41;122.13;;;8.67;;
4274;SDS011;2151;50.988;11.068;2023-05-10T10:57:14;121.00;;;7.60;;
4274;SDS011;2151;50.988;11.068;2023-05-10T10:59:43;123.77;;;7.60;;
4274;SDS011;2151;50.988;11.068;2023-05-10T11:02:17;120.77;;;7.30;;
4274;SDS011;2151;50.988;11.068;2023-05-10T11:04:56;121.07;;;7.00;;
4274;SDS011;2151;50.988;11.068;2023-05-10T11:07:23;120.53;;;7.27;;
4274;SDS011;2151;50.988;11.068;2023-05-10T11:09:50;123.90;;;8.17;;
4274;SDS011;2151;50.988;11.068;2023-05-10T11:12:17;120.77;;;8.20;;
4274;SDS011;2151;50.988;11.068;2023-05-10T11:14:49;122.10;;;8.40;;
4274;SDS011;2151;50.988;11.068;2023-05-10T11:17:26;122.67;;;9.27;;
4274;SDS011;2151;50.988;11.068;2023-05-10T11:20:09;124.57;;;10.93;;
4274;SDS011;2151;50.988;11.068;2023-05-10T11:22:53;123.43;;;10.80;;
4274;SDS011;2151;50.988;11.068;2023-05-10T11:25:25;122.93;;;11.40;;
4274;SDS011;2151;50.988;11.068;2023-05-10T11:27:52;123.67;;;11.73;;
4274;SDS011;2151;50.988;11.068;2023-05-10T11:30:18;120.63;;;12.00;;
4274;SDS011;2151;50.988;11.068;2023-05-10T11:32:45;119.33;;;10.70;;
4274;SDS011;2151;50.988;11.068;2023-05-10T11:35:13;120.93;;;12.37;;
4274;SDS011;2151;50.988;11.068;2023-05-10T11:37:40;122.23;;;13.47;;
4274;SDS011;2151;50.988;11.068;2023-05-10T11:40:09;120.40;;;11.93;;
4274;SDS011;2151;50.988;11.068;2023-05-10T11:42:39;122.60;;;9.63;;
4274;SDS011;2151;50.988;11.068;2023-05-10T11:45:06;120.00;;;9.40;;
4274;SDS011;2151;50.988;11.068;2023-05-10T11:47:32;118.50;;;8.93;;
4274;SDS011;2151;50.988;11.068;2023-05-10T11:49:59;118.17;;;7.77;;
4274;SDS011;2151;50.988;11.068;2023-05-10T11:52:26;118.00;;;6.83;;
4274;SDS011;2151;50.988;11.068;2023-05-10T11:54:52;119.27;;;6.37;;
4274;SDS011;2151;50.988;11.068;2023-05-10T11:57:20;119.70;;;5.83;;
4274;SDS011;2151;50.988;11.068;2023-05-10T11:59:47;117.47;;;5.97;;
4274;SDS011;2151;50.988;11.068;2023-05-10T12:02:13;117.00;;;5.70;;
4274;SDS011;2151;50.988;11.068;2023-05-10T12:04:40;117.20;;;5.80;;
4274;SDS011;2151;50.988;11.068;2023-05-10T12:07:07;116.60;;;5.50;;
4274;SDS011;2151;50.988;11.068;2023-05-10T12:09:33;116.70;;;5.70;;
4274;SDS011;2151;50.988;11.068;2023-05-10T12:12:09;119.10;;;5.60;;
4274;SDS011;2151;50.988;11.068;2023-05-10T12:14:36;116.77;;;5.67;;
4274;SDS011;2151;50.988;11.068;2023-05-10T12:17:02;118.00;;;6.10;;
4274;SDS011;2151;50.988;11.068;2023-05-10T12:19:29;124.30;;;6.50;;
4274;SDS011;2151;50.988;11.068;2023-05-10T12:22:04;118.00;;;8.17;;
4274;SDS011;2151;50.988;11.068;2023-05-10T12:24:30;117.37;;;8.33;;
4274;SDS011;2151;50.988;11.068;2023-05-10T12:26:57;119.77;;;10.40;;
4274;SDS011;2151;50.988;11.068;2023-05-10T12:29:23;120.27;;;11.67;;
4274;SDS011;2151;50.988;11.068;2023-05-10T12:31:54;121.07;;;12.70;;
4274;SDS011;2151;50.988;11.068;2023-05-10T12:34:24;121.70;;;12.23;;
4274;SDS011;2151;50.988;11.068;2023-05-10T12:36:52;122.97;;;11.57;;
4274;SDS011;2151;50.988;11.068;2023-05-10T12:39:18;122.70;;;9.73;;
4274;SDS011;2151;50.988;11.068;2023-05-10T12:41:44;122.53;;;9.27;;
4274;SDS011;2151;50.988;11.068;2023-05-10T12:44:11;121.57;;;8.57;;
4274;SDS011;2151;50.988;11.068;2023-05-10T12:46:38;120.70;;;7.40;;
4274;SDS011;2151;50.988;11.068;2023-05-10T12:49:04;120.63;;;7.20;;
4274;SDS011;2151;50.988;11.068;2023-05-10T12:51:35;118.90;;;5.73;;
4274;SDS011;2151;50.988;11.068;2023-05-10T12:54:02;118.93;;;5.47;;
4274;SDS011;2151;50.988;11.068;2023-05-10T12:56:28;118.30;;;5.93;;
4274;SDS011;2151;50.988;11.068;2023-05-10T12:58:55;118.50;;;6.10;;
4274;SDS011;2151;50.988;11.068;2023-05-10T13:01:21;119.50;;;6.27;;
4274;SDS011;2151;50.988;11.068;2023-05-10T13:03:48;117.27;;;5.80;;
4274;SDS011;2151;50.988;11.068;2023-05-10T13:06:14;117.70;;;5.80;;
4274;SDS011;2151;50.988;11.068;2023-05-10T13:08:41;118.37;;;5.50;;
4274;SDS011;2151;50.988;11.068;2023-05-10T13:11:07;118.50;;;5.30;;
4274;SDS011;2151;50.988;11.068;2023-05-10T13:13:33;124.20;;;6.17;;
4274;SDS011;2151;50.988;11.068;2023-05-10T13:16:00;117.37;;;5.83;;
4274;SDS011;2151;50.988;11.068;2023-05-10T13:18:26;117.10;;;5.43;;
4274;SDS011;2151;50.988;11.068;2023-05-10T13:20:53;116.57;;;5.57;;
4274;SDS011;2151;50.988;11.068;2023-05-10T13:23:20;118.23;;;6.00;;
4274;SDS011;2151;50.988;11.068;2023-05-10T13:25:46;121.27;;;5.50;;
4274;SDS011;2151;50.988;11.068;2023-05-10T13:28:12;116.90;;;5.50;;
4274;SDS011;2151;50.988;11.068;2023-05-10T13:30:39;116.27;;;5.40;;
4274;SDS011;2151;50.988;11.068;2023-05-10T13:33:05;115.50;;;5.17;;
4274;SDS011;2151;50.988;11.068;2023-05-10T13:35:31;113.87;;;4.70;;
4274;SDS011;2151;50.988;11.068;2023-05-10T13:37:58;115.27;;;4.83;;
4274;SDS011;2151;50.988;11.068;2023-05-10T13:40:24;113.50;;;4.70;;
4274;SDS011;2151;50.988;11.068;2023-05-10T13:42:51;114.60;;;5.00;;
4274;SDS011;2151;50.988;11.068;2023-05-10T13:45:17;114.20;;;4.90;;
4274;SDS011;2151;50.988;11.068;2023-05-10T13:47:44;113.57;;;4.57;;
4274;SDS011;2151;50.988;11.068;2023-05-10T13:50:10;114.10;;;4.90;;
4274;SDS011;2151;50.988;11.068;2023-05-10T13:52:37;120.97;;;6.17;;
4274;SDS011;2151;50.988;11.068;2023-05-10T13:55:03;114.17;;;4.67;;
4274;SDS011;2151;50.988;11.068;2023-05-10T13:57:30;116.20;;;4.87;;
4274;SDS011;2151;50.988;11.068;2023-05-10T13:59:56;113.60;;;4.57;;
4274;SDS011;2151;50.988;11.068;2023-05-10T14:02:23;112.77;;;4.83;;
4274;SDS011;2151;50.988;11.068;2023-05-10T14:04:51;114.13;;;4.70;;
4274;SDS011;2151;50.988;11.068;2023-05-10T14:07:17;112.37;;;4.37;;
4274;SDS011;2151;50.988;11.068;2023-05-10T14:09:44;112.97;;;4.40;;
4274;SDS011;2151;50.988;11.068;2023-05-10T14:12:12;113.07;;;4.70;;
4274;SDS011;2151;50.988;11.068;2023-05-10T14:14:39;113.50;;;4.37;;
4274;SDS011;2151;50.988;11.068;2023-05-10T14:17:06;111.07;;;3.90;;
4274;SDS011;2151;50.988;11.068;2023-05-10T14:19:35;111.57;;;4.30;;
4274;SDS011;2151;50.988;11.068;2023-05-10T14:22:02;111.67;;;4.40;;
4274;SDS011;2151;50.988;11.068;2023-05-10T14:24:29;113.37;;;4.30;;
4274;SDS011;2151;50.988;11.068;2023-05-10T14:26:55;114.60;;;4.33;;
4274;SDS011;2151;50.988;11.068;2023-05-10T14:29:21;112.10;;;4.37;;
4274;SDS011;2151;50.988;11.068;2023-05-10T14:31:49;113.60;;;4.00;;
4274;SDS011;2151;50.988;11.068;2023-05-10T14:34:17;110.90;;;4.10;;
4274;SDS011;2151;50.988;11.068;2023-05-10T14:36:43;118.43;;;4.90;;
4274;SDS011;2151;50.988;11.068;2023-05-10T14:39:09;111.63;;;4.53;;
4274;SDS011;2151;50.988;11.068;2023-05-10T14:41:39;112.07;;;4.80;;
4274;SDS011;2151;50.988;11.068;2023-05-10T14:44:07;111.80;;;4.87;;
4274;SDS011;2151;50.988;11.068;2023-05-10T14:46:34;111.70;;;4.83;;
4274;SDS011;2151;50.988;11.068;2023-05-10T14:49:00;111.37;;;4.30;;
4274;SDS011;2151;50.988;11.068;2023-05-10T14:51:27;111.93;;;4.10;;
4274;SDS011;2151;50.988;11.068;2023-05-10T14:53:53;112.43;;;4.50;;
4274;SDS011;2151;50.988;11.068;2023-05-10T14:56:20;112.07;;;4.60;;
4274;SDS011;2151;50.988;11.068;2023-05-10T14:58:47;111.50;;;4.27;;
4274;SDS011;2151;50.988;11.068;2023-05-10T15:01:14;112.57;;;4.80;;
4274;SDS011;2151;50.988;11.068;2023-05-10T15:03:41;111.83;;;4.60;;
4274;SDS011;2151;50.988;11.068;2023-05-10T15:06:08;112.27;;;4.50;;
4274;SDS011;2151;50.988;11.068;2023-05-10T15:08:34;111.60;;;4.40;;